Terminal Aerodrome Forecast
Issued by NWS Detroit/Pontiac, MI

Home | Current Version | Previous Version | Text Only | Print | Product List | Glossary On
Versions: 1 2 3 4 5 6 7 8 9 10 11 12 13 14 15 16 17 18 19 20 21 22 23 24 25 26 27 28 29 30 31
000
FTUS43 KDTX 031121 AAD
TAFDTW
TAF AMD
KDTW 031121Z 0311/0412 VRB02KT 1/2SM FG VV002
     FM031200 VRB03KT 1SM BR BKN007
     FM031300 30004KT P6SM SCT045
     FM031900 26005KT P6SM BKN060
     FM040400 24006KT P6SM OVC050=

USA.gov is the U.S. government's official web portal to all federal, state and local government web resources and services.